TFM - Tactical Decision Aid
ID: Runway Winds: CIG/VIS Threshold:

KPHX - Phoenix/Sky Harbor, AZ, US

Updated at: 2036 UTC 17 Jun 2019
Latest TAF at: 1737 UTC 17 Jun 2019

TAF Board

Time1951Z 17/21Z 17/22Z 17/23Z 18/00Z 18/01Z 18/02Z 18/03Z 18/04Z 18/05Z 18/06Z 18/07Z 18/08Z 18/09Z>>
Type OBS PRVL PRVL PRVL PRVL PRVL PRVL PRVL PRVL PRVL PRVL PRVL PRVL PRVL
VIS 10 >6 >6 >6 >6 >6 >6 >6 >6 >6 >6 >6 >6 >6
CIG -- -- -- -- -- -- -- -- -- -- -- -- -- --
Cover SCT SCT FEW FEW FEW FEW FEW FEW FEW FEW FEW SCT SCT SCT
FltCat VFR VFR VFR VFR VFR VFR VFR VFR VFR VFR VFR VFR VFR VFR
WX -- -- -- -- -- -- -- -- -- -- -- -- -- --
WDir 140 180 220 220 220 250 250 250 250 250 250 120 120 120
WSpd 10 10 9 9 9 12 12 12 6 6 6 5 5 5
WGst 17 18 15 15 15 20 20 20 -- -- -- -- -- --

TDA Impact Legend

  None Marginal Slight Moderate High
Visibility (sm) >5 3≤X≤5 1.25≤X<3 0.5≤X<1.25 <0.5
Ceiling (100 ft) >30 10≤X≤30 4≤X<10 2≤X<4 <2
Wind Speed (kt) <15 15≤X<25 25≤X<30 ≥30
Wind Gust (kt) <15 15≤X<25 25≤X<35 ≥35
Weather No Wx Reported VCTS -TS,-FZRA TS,FZRA +TS,+FZRA
TAF
KPHX 171737Z 1718/1824 18010G18KT P6SM FEW100 SCT200
  FM172200 22009G15KT P6SM FEW100 FEW250
  FM180030 25012G20KT P6SM FEW250
  FM180400 25006KT P6SM FEW250
  FM180700 12005KT P6SM SCT250
  FM181700 18008KT P6SM FEW250


METAR
KPHX 171951Z 14010G17KT 130V190 10SM FEW080 FEW100 SCT250 38/M01 A2977 RMK AO2 SLP058 FU FEW080 DSNT E T03781006
KPHX 171851Z 17013G16KT 10SM FEW080 FEW100 SCT250 38/M02 A2979 RMK AO2 SLP065 FU FEW080 DSNT E T03781022
KPHX 171751Z 15011G16KT 10SM SCT250 36/01 A2980 RMK AO2 SLP067 T03610006 10361 20278 50001

Radar Display
Forecast Discussion